createdAt,value
2018-06-14T00:01:02.885Z,8.20
2018-06-14T00:03:30.969Z,8.63
2018-06-14T00:05:59.040Z,7.50
2018-06-14T00:08:27.120Z,8.50
2018-06-14T00:10:55.193Z,7.90
2018-06-14T00:13:23.277Z,7.97
2018-06-14T00:15:51.348Z,7.67
2018-06-14T00:18:19.434Z,8.37
2018-06-14T00:20:47.514Z,8.80
2018-06-14T00:23:15.604Z,8.30
2018-06-14T00:25:43.715Z,7.80
2018-06-14T00:28:11.805Z,7.63
2018-06-14T00:30:39.877Z,8.67
2018-06-14T00:33:08.090Z,8.07
2018-06-14T00:35:36.377Z,8.67
2018-06-14T00:38:04.468Z,8.13
2018-06-14T00:40:32.541Z,8.83
2018-06-14T00:43:00.621Z,8.80
2018-06-14T00:45:28.695Z,7.73
2018-06-14T00:47:56.782Z,8.00
2018-06-14T00:50:24.853Z,8.07
2018-06-14T00:52:52.936Z,8.67
2018-06-14T00:55:21.010Z,8.10
2018-06-14T00:57:49.089Z,8.27
2018-06-14T01:00:17.170Z,7.70
2018-06-14T01:02:45.270Z,8.13
2018-06-14T01:05:13.350Z,8.00
2018-06-14T01:07:41.433Z,7.83
2018-06-14T01:10:09.509Z,7.77
2018-06-14T01:12:37.597Z,8.00
2018-06-14T01:15:05.701Z,7.10
2018-06-14T01:17:33.773Z,7.57
2018-06-14T01:20:01.857Z,7.97
2018-06-14T01:22:29.966Z,6.83
2018-06-14T01:24:58.049Z,7.30
2018-06-14T01:27:26.236Z,7.30
2018-06-14T01:29:54.308Z,7.10
2018-06-14T01:32:22.385Z,7.13
2018-06-14T01:34:50.457Z,8.37
2018-06-14T01:37:28.576Z,7.20
2018-06-14T01:39:56.661Z,6.63
2018-06-14T01:42:24.525Z,7.10
2018-06-14T01:44:52.601Z,6.10
2018-06-14T01:47:20.690Z,7.00
2018-06-14T01:49:48.770Z,6.63
2018-06-14T01:52:16.850Z,6.60
2018-06-14T01:54:44.938Z,7.23
2018-06-14T01:57:13.017Z,6.77
2018-06-14T01:59:41.114Z,7.00
2018-06-14T02:02:09.188Z,6.83
2018-06-14T02:04:37.277Z,7.17
2018-06-14T02:07:05.362Z,5.70
2018-06-14T02:09:33.445Z,6.93
2018-06-14T02:12:01.532Z,6.90
2018-06-14T02:14:29.617Z,7.30
2018-06-14T02:16:57.694Z,6.60
2018-06-14T02:19:25.772Z,7.20
2018-06-14T02:21:53.858Z,7.67
2018-06-14T02:24:21.946Z,8.07
2018-06-14T02:26:49.830Z,8.40
2018-06-14T02:29:17.909Z,7.70
2018-06-14T02:31:45.989Z,7.20
2018-06-14T02:34:14.077Z,6.50
2018-06-14T02:36:42.169Z,7.13
2018-06-14T02:39:10.249Z,6.87
2018-06-14T02:41:38.321Z,8.23
2018-06-14T02:44:06.409Z,8.17
2018-06-14T02:46:34.489Z,7.53
2018-06-14T02:49:02.565Z,6.90
2018-06-14T02:51:30.646Z,6.03
2018-06-14T02:53:58.725Z,6.40
2018-06-14T02:56:26.814Z,5.57
2018-06-14T02:58:54.898Z,5.70
2018-06-14T03:01:22.982Z,6.93
2018-06-14T03:03:51.060Z,6.57
2018-06-14T03:06:18.913Z,7.40
2018-06-14T03:08:46.993Z,7.40
2018-06-14T03:11:15.073Z,7.03
2018-06-14T03:13:43.151Z,7.30
2018-06-14T03:16:11.233Z,6.47
2018-06-14T03:18:39.309Z,6.67
2018-06-14T03:21:07.383Z,5.53
2018-06-14T03:23:35.470Z,7.00
2018-06-14T03:26:03.548Z,7.23
2018-06-14T03:28:31.645Z,7.30
2018-06-14T03:30:59.720Z,6.90
2018-06-14T03:33:27.792Z,6.47
2018-06-14T03:35:55.884Z,6.80
2018-06-14T03:38:25.038Z,6.30
2018-06-14T03:40:53.147Z,7.60
2018-06-14T03:43:21.197Z,6.47
2018-06-14T03:45:49.282Z,6.70
2018-06-14T03:48:17.352Z,7.30
2018-06-14T03:50:45.452Z,6.00
2018-06-14T03:53:13.517Z,6.50
2018-06-14T03:55:41.597Z,6.40
2018-06-14T03:58:12.122Z,6.30
2018-06-14T04:00:40.222Z,6.10
2018-06-14T04:03:08.309Z,6.43
2018-06-14T04:05:36.384Z,7.00
2018-06-14T04:08:04.485Z,6.90
2018-06-14T04:10:32.568Z,5.93
2018-06-14T04:13:00.639Z,7.00
2018-06-14T04:15:28.717Z,7.80
2018-06-14T04:18:01.330Z,7.27
2018-06-14T04:20:29.983Z,7.83
2018-06-14T04:22:58.288Z,7.40
2018-06-14T04:25:26.364Z,7.00
2018-06-14T04:27:54.446Z,6.77
2018-06-14T04:30:22.752Z,6.87
2018-06-14T04:32:51.193Z,7.33
2018-06-14T04:35:19.272Z,8.27
2018-06-14T04:37:47.366Z,7.80
2018-06-14T04:40:15.226Z,8.10
2018-06-14T04:42:43.308Z,7.20
2018-06-14T04:45:11.389Z,8.40
2018-06-14T04:47:39.797Z,7.60
2018-06-14T04:50:07.889Z,7.87
2018-06-14T04:52:35.972Z,8.00
2018-06-14T04:55:04.256Z,7.77
2018-06-14T04:57:32.330Z,8.50
2018-06-14T05:00:00.426Z,8.90
2018-06-14T05:02:28.526Z,8.50
2018-06-14T05:04:56.573Z,8.40
2018-06-14T05:07:24.656Z,8.20
2018-06-14T05:09:52.728Z,7.97
2018-06-14T05:12:20.817Z,8.97
2018-06-14T05:14:48.896Z,8.40
2018-06-14T05:17:16.980Z,9.03
2018-06-14T05:19:45.053Z,8.97
2018-06-14T05:22:13.151Z,9.63
2018-06-14T05:24:41.221Z,7.90
2018-06-14T05:27:09.310Z,8.40
2018-06-14T05:29:37.443Z,9.13
2018-06-14T05:32:05.481Z,8.40
2018-06-14T05:34:33.553Z,8.90
2018-06-14T05:37:01.725Z,9.03
2018-06-14T05:39:29.801Z,7.80
2018-06-14T05:41:57.890Z,8.40
2018-06-14T05:44:26.980Z,8.40
2018-06-14T05:46:55.077Z,9.50
2018-06-14T05:49:23.148Z,8.47
2018-06-14T05:51:51.233Z,8.67
2018-06-14T05:54:19.296Z,8.27
2018-06-14T05:56:47.401Z,9.10
2018-06-14T05:59:15.469Z,8.20
2018-06-14T06:01:43.557Z,9.13
2018-06-14T06:04:11.632Z,8.60
2018-06-14T06:06:39.714Z,7.90
2018-06-14T06:09:09.630Z,10.23
2018-06-14T06:11:37.713Z,8.83
2018-06-14T06:14:05.808Z,9.30
2018-06-14T06:16:33.897Z,8.60
2018-06-14T06:19:01.994Z,8.10
2018-06-14T06:21:30.080Z,8.40
2018-06-14T06:23:58.158Z,8.40
2018-06-14T06:26:26.287Z,8.30
2018-06-14T06:28:54.349Z,7.90
2018-06-14T06:31:22.442Z,7.43
2018-06-14T06:33:50.523Z,7.63
2018-06-14T06:36:18.698Z,7.40
2018-06-14T06:38:46.807Z,7.83
2018-06-14T06:41:14.864Z,9.23
2018-06-14T06:43:43.021Z,7.30
2018-06-14T06:46:11.109Z,7.23
2018-06-14T06:48:39.192Z,7.07
2018-06-14T06:51:07.278Z,7.80
2018-06-14T06:53:35.381Z,7.30
2018-06-14T06:56:03.501Z,8.50
2018-06-14T06:58:31.545Z,7.37
2018-06-14T07:00:59.657Z,7.17
2018-06-14T07:03:27.704Z,8.30
2018-06-14T07:05:55.857Z,6.73
2018-06-14T07:08:23.862Z,6.63
2018-06-14T07:10:51.937Z,7.90
2018-06-14T07:13:20.008Z,7.10
2018-06-14T07:15:48.084Z,7.57
2018-06-14T07:18:16.164Z,6.10
2018-06-14T07:20:44.245Z,6.60
2018-06-14T07:23:12.348Z,7.77
2018-06-14T07:25:40.421Z,7.10
2018-06-14T07:28:08.512Z,8.30
2018-06-14T07:30:36.586Z,5.93
2018-06-14T07:33:04.710Z,6.77
2018-06-14T07:35:32.802Z,6.73
2018-06-14T07:38:00.894Z,6.50
2018-06-14T07:40:28.965Z,7.30
2018-06-14T07:42:57.047Z,5.80
2018-06-14T07:47:50.418Z,6.90
2018-06-14T07:50:18.484Z,7.77
2018-06-14T07:52:46.561Z,6.60
2018-06-14T07:55:14.641Z,9.13
2018-06-14T07:57:42.733Z,7.33
2018-06-14T08:00:10.821Z,7.70
2018-06-14T08:02:38.910Z,6.40
2018-06-14T08:05:06.985Z,6.70
2018-06-14T08:07:35.065Z,6.70
2018-06-14T08:10:03.137Z,7.30
2018-06-14T08:12:31.253Z,7.70
2018-06-14T08:14:59.305Z,7.93
2018-06-14T08:17:27.389Z,8.50
2018-06-14T08:19:55.460Z,8.40
2018-06-14T08:22:23.544Z,7.77
2018-06-14T08:24:51.404Z,8.50
2018-06-14T08:27:19.499Z,7.90
2018-06-14T08:29:47.576Z,8.10
2018-06-14T08:32:15.650Z,7.73
2018-06-14T08:34:43.733Z,9.40
2018-06-14T08:37:11.813Z,7.20
2018-06-14T08:39:39.887Z,6.40
2018-06-14T08:42:07.967Z,7.27
2018-06-14T08:44:36.064Z,6.73
2018-06-14T08:47:04.136Z,6.00
2018-06-14T08:49:32.225Z,5.67
2018-06-14T08:52:00.301Z,5.73
2018-06-14T08:54:28.385Z,5.70
2018-06-14T08:56:56.580Z,6.03
2018-06-14T08:59:24.657Z,5.53
2018-06-14T09:01:52.737Z,6.83
2018-06-14T09:04:20.821Z,6.87
2018-06-14T09:06:48.898Z,5.43
2018-06-14T09:09:16.981Z,5.80
2018-06-14T09:11:45.059Z,6.67
2018-06-14T09:14:13.180Z,6.90
2018-06-14T09:16:41.217Z,6.17
2018-06-14T09:19:09.296Z,5.40
2018-06-14T09:21:37.492Z,5.53
2018-06-14T09:24:05.580Z,6.93
2018-06-14T09:26:33.652Z,7.07
2018-06-14T09:29:01.738Z,7.83
2018-06-14T09:31:29.808Z,6.53
2018-06-14T09:33:57.886Z,8.50
2018-06-14T09:36:25.966Z,7.10
2018-06-14T09:38:54.045Z,7.70
2018-06-14T09:41:21.895Z,6.70
2018-06-14T09:43:49.981Z,6.90
2018-06-14T09:46:18.064Z,7.50
2018-06-14T09:48:50.178Z,6.93
2018-06-14T09:51:18.249Z,7.30
2018-06-14T09:53:46.325Z,6.23
2018-06-14T09:56:14.398Z,7.10
2018-06-14T09:58:42.484Z,6.30
2018-06-14T10:01:10.553Z,7.53
2018-06-14T10:03:38.637Z,6.40
2018-06-14T10:06:06.783Z,7.10
2018-06-14T10:08:34.796Z,5.93
2018-06-14T10:11:02.865Z,6.90
2018-06-14T10:13:30.954Z,6.70
2018-06-14T10:15:59.050Z,6.73
2018-06-14T10:18:27.134Z,5.60
2018-06-14T10:20:55.209Z,5.77
2018-06-14T10:23:23.310Z,6.70
2018-06-14T10:25:51.185Z,5.90
2018-06-14T10:28:19.258Z,5.80
2018-06-14T10:30:47.354Z,5.70
2018-06-14T10:33:15.430Z,7.00
2018-06-14T10:35:43.509Z,7.00
2018-06-14T10:38:11.584Z,6.10
2018-06-14T10:40:39.669Z,6.27
2018-06-14T10:43:08.124Z,6.50
2018-06-14T10:45:36.205Z,6.37
2018-06-14T10:48:04.277Z,6.30
2018-06-14T10:50:32.360Z,6.77
2018-06-14T10:53:00.429Z,5.63
2018-06-14T10:55:29.410Z,6.27
2018-06-14T10:57:57.507Z,6.20
2018-06-14T11:00:25.617Z,6.77
2018-06-14T11:02:53.813Z,5.87
2018-06-14T11:05:21.893Z,6.83
2018-06-14T11:07:50.162Z,7.80
2018-06-14T11:10:18.245Z,6.83
2018-06-14T11:12:46.324Z,6.27
2018-06-14T11:15:14.689Z,6.30
2018-06-14T11:17:42.858Z,6.40
2018-06-14T11:20:10.992Z,5.07
2018-06-14T11:22:39.306Z,6.40
2018-06-14T11:25:07.401Z,5.60
2018-06-14T11:27:35.472Z,6.77
2018-06-14T11:30:03.594Z,6.33
2018-06-14T11:32:31.613Z,5.90
2018-06-14T11:34:59.696Z,6.13
2018-06-14T11:37:27.773Z,6.40
2018-06-14T11:39:55.853Z,7.10
2018-06-14T11:42:23.922Z,5.93
2018-06-14T11:44:52.168Z,5.93
2018-06-14T11:47:20.237Z,5.90
2018-06-14T11:49:48.301Z,7.50
2018-06-14T11:52:16.377Z,6.50
2018-06-14T11:54:44.792Z,6.83
2018-06-14T11:57:12.856Z,7.10
2018-06-14T11:59:40.941Z,6.43
2018-06-14T12:02:09.045Z,6.20
2018-06-14T12:04:37.147Z,5.30
2018-06-14T12:07:05.237Z,6.23
2018-06-14T12:09:33.304Z,6.87
2018-06-14T12:12:01.389Z,8.33
2018-06-14T12:17:03.105Z,7.50
2018-06-14T12:19:31.172Z,6.93
2018-06-14T12:21:59.258Z,7.10
2018-06-14T12:24:27.330Z,6.57
2018-06-14T12:26:55.437Z,7.10
2018-06-14T12:29:23.297Z,6.87
2018-06-14T12:31:51.381Z,7.17
2018-06-14T12:34:19.458Z,7.60
2018-06-14T12:36:47.548Z,6.57
2018-06-14T12:39:15.628Z,6.17
2018-06-14T12:41:43.706Z,7.40
2018-06-14T12:44:11.831Z,6.70
2018-06-14T12:46:40.066Z,7.37
2018-06-14T12:49:08.145Z,6.57
2018-06-14T12:51:36.216Z,6.80
2018-06-14T12:54:04.886Z,6.63
2018-06-14T12:56:32.978Z,6.80
2018-06-14T12:59:01.071Z,7.10
2018-06-14T13:01:29.148Z,7.20
2018-06-14T13:03:57.225Z,6.03
2018-06-14T13:06:25.445Z,7.17
2018-06-14T13:08:53.529Z,7.33
2018-06-14T13:11:21.614Z,8.30
2018-06-14T13:13:49.676Z,7.40
2018-06-14T13:16:17.760Z,6.60
2018-06-14T13:18:45.829Z,7.53
2018-06-14T13:21:13.909Z,8.17
2018-06-14T13:23:41.992Z,6.87
2018-06-14T13:26:09.856Z,5.73
2018-06-14T13:28:37.936Z,7.20
2018-06-14T13:31:06.024Z,6.97
2018-06-14T13:33:34.093Z,7.90
2018-06-14T13:36:02.232Z,7.67
2018-06-14T13:38:30.262Z,6.97
2018-06-14T13:40:58.346Z,7.03
2018-06-14T13:43:26.409Z,7.00
2018-06-14T13:45:54.484Z,5.43
2018-06-14T13:48:22.640Z,7.53
2018-06-14T13:50:50.718Z,7.87
2018-06-14T13:53:18.792Z,7.03
2018-06-14T13:55:46.865Z,6.50
2018-06-14T13:58:14.966Z,6.73
2018-06-14T14:00:43.036Z,6.37
2018-06-14T14:03:11.116Z,6.40
2018-06-14T14:05:39.206Z,7.90
2018-06-14T14:08:07.277Z,7.13
2018-06-14T14:10:35.346Z,8.00
2018-06-14T14:13:03.413Z,6.70
2018-06-14T14:15:31.653Z,7.20
2018-06-14T14:17:59.768Z,7.77
2018-06-14T14:20:27.812Z,7.33
2018-06-14T14:22:55.893Z,6.50
2018-06-14T14:25:23.971Z,6.73
2018-06-14T14:27:52.054Z,7.00
2018-06-14T14:30:20.134Z,6.50
2018-06-14T14:32:48.213Z,6.13
2018-06-14T14:35:16.286Z,7.03
2018-06-14T14:37:44.385Z,7.77
2018-06-14T14:40:12.460Z,8.20
2018-06-14T14:42:40.546Z,7.30
2018-06-14T14:45:08.616Z,8.47
2018-06-14T14:47:36.694Z,7.73
2018-06-14T14:50:04.772Z,7.47
2018-06-14T14:52:32.631Z,7.80
2018-06-14T14:55:00.706Z,7.67
2018-06-14T14:57:28.783Z,7.30
2018-06-14T14:59:56.997Z,7.77
2018-06-14T15:04:59.621Z,7.37
2018-06-14T15:07:27.702Z,7.70
2018-06-14T15:09:55.774Z,8.30
2018-06-14T15:12:23.640Z,8.23
2018-06-14T15:14:51.717Z,8.50
2018-06-14T15:17:19.796Z,7.20
2018-06-14T15:19:47.892Z,7.87
2018-06-14T15:22:15.941Z,7.50
2018-06-14T15:24:44.016Z,7.80
2018-06-14T15:27:12.085Z,7.87
2018-06-14T15:29:40.161Z,7.77
2018-06-14T15:32:08.243Z,7.60
2018-06-14T15:34:36.317Z,6.93
2018-06-14T15:37:04.401Z,8.60
2018-06-14T15:39:32.686Z,7.53
2018-06-14T15:42:00.757Z,8.40
2018-06-14T15:44:28.828Z,8.10
2018-06-14T15:46:56.900Z,8.13
2018-06-14T15:49:24.983Z,8.80
2018-06-14T15:51:53.057Z,8.20
2018-06-14T15:54:21.201Z,7.90
2018-06-14T15:56:49.217Z,8.30
2018-06-14T15:59:17.293Z,8.30
2018-06-14T16:01:45.370Z,7.33
2018-06-14T16:04:13.488Z,8.63
2018-06-14T16:06:41.542Z,7.90
2018-06-14T16:09:10.761Z,8.33
2018-06-14T16:11:38.829Z,8.60
2018-06-14T16:14:07.234Z,8.83
2018-06-14T16:16:35.293Z,7.70
2018-06-14T16:19:03.374Z,7.77
2018-06-14T16:21:31.455Z,7.80
2018-06-14T16:23:59.529Z,8.43
2018-06-14T16:26:27.593Z,7.07
2018-06-14T16:28:55.685Z,8.50
2018-06-14T16:31:23.752Z,7.50
2018-06-14T16:33:51.838Z,7.93
2018-06-14T16:36:19.938Z,8.50
2018-06-14T16:38:48.026Z,9.10
2018-06-14T16:41:16.109Z,8.40
2018-06-14T16:43:44.185Z,8.10
2018-06-14T16:46:12.269Z,9.40
2018-06-14T16:48:42.125Z,8.83
2018-06-14T16:51:10.203Z,7.87
2018-06-14T16:53:38.283Z,8.30
2018-06-14T16:56:06.402Z,8.27
2018-06-14T16:58:34.641Z,8.70
2018-06-14T17:01:02.719Z,8.80
2018-06-14T17:03:30.780Z,9.10
2018-06-14T17:05:58.873Z,8.60
2018-06-14T17:08:26.954Z,9.10
2018-06-14T17:10:55.025Z,8.80
2018-06-14T17:13:23.126Z,9.13
2018-06-14T17:15:51.203Z,8.63
2018-06-14T17:18:19.273Z,9.70
2018-06-14T17:20:47.353Z,9.67
2018-06-14T17:23:15.424Z,7.87
2018-06-14T17:25:43.501Z,8.17
2018-06-14T17:28:11.585Z,8.23
2018-06-14T17:30:39.667Z,8.77
2018-06-14T17:33:07.729Z,9.00
2018-06-14T17:35:35.805Z,9.00
2018-06-14T17:38:03.885Z,8.93
2018-06-14T17:40:31.969Z,8.70
2018-06-14T17:43:00.033Z,8.77
2018-06-14T17:45:28.130Z,9.47
2018-06-14T17:47:56.201Z,8.67
2018-06-14T17:50:24.286Z,8.47
2018-06-14T17:52:52.764Z,9.07
2018-06-14T17:55:20.856Z,9.13
2018-06-14T17:57:48.911Z,8.63
2018-06-14T18:00:17.043Z,8.20
2018-06-14T18:02:45.070Z,8.30
2018-06-14T18:05:13.156Z,9.00
2018-06-14T18:07:41.226Z,9.13
2018-06-14T18:10:09.306Z,8.90
2018-06-14T18:12:37.381Z,9.33
2018-06-14T18:15:05.487Z,9.33
2018-06-14T18:17:33.546Z,9.53
2018-06-14T18:20:01.638Z,8.30
2018-06-14T18:22:29.729Z,10.37
2018-06-14T18:24:57.829Z,9.90
2018-06-14T18:27:25.993Z,9.00
2018-06-14T18:29:54.099Z,9.13
2018-06-14T18:32:22.160Z,9.73
2018-06-14T18:34:50.262Z,9.47
2018-06-14T18:37:18.347Z,8.43
2018-06-14T18:39:46.438Z,10.10
2018-06-14T18:42:14.522Z,9.77
2018-06-14T18:44:42.603Z,10.00
2018-06-14T18:47:10.692Z,9.00
2018-06-14T18:49:38.817Z,10.30
2018-06-14T18:52:06.869Z,9.27
2018-06-14T18:54:34.945Z,10.53
2018-06-14T18:57:03.043Z,10.67
2018-06-14T18:59:31.909Z,9.70
2018-06-14T19:02:00.002Z,9.87
2018-06-14T19:04:28.075Z,9.33
2018-06-14T19:06:56.157Z,9.50
2018-06-14T19:09:24.397Z,9.47
2018-06-14T19:11:52.491Z,10.20
2018-06-14T19:14:20.561Z,9.07
2018-06-14T19:16:48.636Z,9.23
2018-06-14T19:19:16.724Z,9.20
2018-06-14T19:21:44.810Z,9.60
2018-06-14T19:24:12.665Z,9.07
2018-06-14T19:26:40.749Z,9.27
2018-06-14T19:29:08.871Z,8.70
2018-06-14T19:31:36.968Z,8.30
2018-06-14T19:34:05.494Z,9.33
2018-06-14T19:36:33.573Z,8.77
2018-06-14T19:39:01.641Z,8.97
2018-06-14T19:41:29.733Z,8.90
2018-06-14T19:43:57.808Z,10.97
2018-06-14T19:46:25.897Z,9.90
2018-06-14T19:48:54.273Z,10.07
2018-06-14T19:51:22.365Z,9.73
2018-06-14T19:53:50.442Z,9.67
2018-06-14T19:56:18.534Z,9.83
2018-06-14T19:58:46.609Z,10.10
2018-06-14T20:01:14.693Z,9.47
2018-06-14T20:03:42.765Z,9.30
2018-06-14T20:06:10.859Z,9.73
2018-06-14T20:08:38.928Z,9.77
2018-06-14T20:11:07.322Z,10.67
2018-06-14T20:13:35.393Z,11.83
2018-06-14T20:16:03.879Z,10.80
2018-06-14T20:18:31.952Z,13.70
2018-06-14T20:21:00.089Z,10.80
2018-06-14T20:23:27.907Z,11.10
2018-06-14T20:25:55.997Z,9.80
2018-06-14T20:28:24.227Z,10.43
2018-06-14T20:30:52.313Z,9.57
2018-06-14T20:33:20.402Z,9.00
2018-06-14T20:35:48.480Z,10.40
2018-06-14T20:40:54.649Z,10.70
2018-06-14T20:43:22.740Z,9.60
2018-06-14T20:45:50.828Z,9.70
2018-06-14T20:48:18.908Z,9.60
2018-06-14T20:50:46.995Z,8.60
2018-06-14T20:53:15.081Z,8.70
2018-06-14T20:55:43.174Z,9.47
2018-06-14T20:58:11.250Z,8.50
2018-06-14T21:00:39.157Z,8.53
2018-06-14T21:03:07.246Z,9.63
2018-06-14T21:05:35.309Z,8.00
2018-06-14T21:08:04.309Z,8.07
2018-06-14T21:10:32.409Z,8.03
2018-06-14T21:13:00.502Z,8.00
2018-06-14T21:15:28.577Z,7.00
2018-06-14T21:17:56.662Z,7.37
2018-06-14T21:20:24.740Z,7.93
2018-06-14T21:22:52.816Z,8.03
2018-06-14T21:25:20.894Z,7.00
2018-06-14T21:27:48.988Z,7.47
2018-06-14T21:30:17.070Z,7.03
2018-06-14T21:32:45.153Z,7.00
2018-06-14T21:35:13.241Z,6.37
2018-06-14T21:37:41.324Z,6.20
2018-06-14T21:40:09.513Z,7.17
2018-06-14T21:42:37.610Z,5.97
2018-06-14T21:45:05.700Z,6.30
2018-06-14T21:47:33.786Z,6.87
2018-06-14T21:50:01.861Z,5.97
2018-06-14T21:52:29.948Z,6.40
2018-06-14T21:54:58.037Z,4.67
2018-06-14T21:57:26.213Z,5.60
2018-06-14T21:59:54.284Z,5.23
2018-06-14T22:02:22.369Z,5.37
2018-06-14T22:04:50.446Z,5.27
2018-06-14T22:07:18.530Z,4.00
2018-06-14T22:09:46.601Z,3.93
2018-06-14T22:12:14.689Z,4.47
2018-06-14T22:14:42.757Z,4.63
2018-06-14T22:17:11.399Z,3.53
2018-06-14T22:19:39.684Z,4.37
2018-06-14T22:22:07.801Z,4.90
2018-06-14T22:24:35.845Z,4.30
2018-06-14T22:27:03.990Z,4.60
2018-06-14T22:29:32.077Z,4.43
2018-06-14T22:32:00.153Z,4.23
2018-06-14T22:34:39.420Z,3.70
2018-06-14T22:37:07.505Z,4.47
2018-06-14T22:39:35.589Z,4.50
2018-06-14T22:42:03.669Z,4.30
2018-06-14T22:44:31.813Z,4.00
2018-06-14T22:46:59.834Z,3.70
2018-06-14T22:49:27.922Z,4.57
2018-06-14T22:53:10.208Z,4.17
2018-06-14T22:55:38.373Z,4.27
2018-06-14T22:58:06.457Z,3.80
2018-06-14T23:00:54.668Z,4.03
2018-06-14T23:03:22.964Z,4.20
2018-06-14T23:05:51.041Z,4.60
2018-06-14T23:08:19.119Z,4.37
2018-06-14T23:10:58.564Z,3.70
2018-06-14T23:13:26.654Z,3.80
2018-06-14T23:15:54.745Z,4.53
2018-06-14T23:18:22.816Z,4.10
2018-06-14T23:20:50.893Z,4.00
2018-06-14T23:23:18.982Z,4.07
2018-06-14T23:25:47.062Z,4.50
2018-06-14T23:28:15.144Z,4.10
2018-06-14T23:30:43.212Z,4.27
2018-06-14T23:33:11.306Z,4.60
2018-06-14T23:35:39.384Z,4.67
2018-06-14T23:38:07.469Z,5.13
2018-06-14T23:40:35.558Z,5.17
2018-06-14T23:43:03.632Z,4.57
2018-06-14T23:45:31.745Z,4.50
2018-06-14T23:47:59.812Z,4.20
2018-06-14T23:50:27.904Z,5.50
2018-06-14T23:52:55.969Z,4.30
2018-06-14T23:55:24.051Z,4.30
2018-06-14T23:57:52.113Z,4.10
